Time;durP1;ratioP1;P1;durP2;ratioP2;P2;SDS_P1;SDS_P2;PMS_P1;PMS_P2;Temp;Humidity;BMP_temperature;BMP_pressure;BME280_temperature;BME280_humidity;BME280_pressure;Samples;Min_cycle;Max_cycle;Signal;HPM_P1;HPM_P2
2022/10/12 00:00:51;;;;;;;0.30;0.30;;;;;;;10.48;76.48;102646.91;2090397;28;20053;-68
2022/10/12 00:01:54;;;;;;;0.20;0.20;;;;;;;10.49;75.42;102649.31;2083924;28;20507;-68
2022/10/12 00:02:57;;;;;;;0.30;0.30;;;;;;;10.47;75.53;102646.09;2086263;28;20432;-69
2022/10/12 00:03:59;;;;;;;0.32;0.32;;;;;;;10.46;75.67;102641.78;2087684;28;20052;-68
2022/10/12 00:05:03;;;;;;;0.30;0.30;;;;;;;10.46;76.28;102647.16;2096422;28;20052;-69
2022/10/12 00:06:08;;;;;;;0.20;0.20;;;;;;;10.48;76.14;102646.91;2079650;28;20437;-68
2022/10/12 00:07:11;;;;;;;0.20;0.20;;;;;;;10.47;76.04;102651.50;2087541;28;20127;-68
2022/10/12 00:08:13;;;;;;;0.30;0.30;;;;;;;10.47;76.03;102648.78;2091449;28;20053;-68
2022/10/12 00:09:17;;;;;;;0.30;0.30;;;;;;;10.44;75.72;102652.09;2088355;28;20055;-68
2022/10/12 00:10:21;;;;;;;0.20;0.20;;;;;;;10.46;75.49;102649.88;2087130;28;20117;-68
2022/10/12 00:11:27;;;;;;;0.20;0.20;;;;;;;10.45;75.94;102648.28;2090365;28;20048;-68
2022/10/12 00:12:29;;;;;;;0.30;0.30;;;;;;;10.43;76.02;102645.06;2088304;28;20064;-68
2022/10/12 00:13:34;;;;;;;0.30;0.30;;;;;;;10.44;76.17;102641.28;2089663;28;20187;-67
2022/10/12 00:14:37;;;;;;;0.20;0.20;;;;;;;10.42;75.97;102640.78;2092976;28;20159;-68
2022/10/12 00:15:41;;;;;;;0.20;0.20;;;;;;;10.42;75.87;102642.66;2088994;28;20068;-68
2022/10/12 00:16:43;;;;;;;0.30;0.30;;;;;;;10.40;75.51;102648.34;2086433;28;20508;-68
2022/10/12 00:17:47;;;;;;;0.20;0.20;;;;;;;10.40;75.20;102637.56;2084238;28;20068;-68
2022/10/12 00:18:50;;;;;;;0.30;0.30;;;;;;;10.38;75.85;102645.16;2082503;28;20053;-67
2022/10/12 00:19:53;;;;;;;0.20;0.20;;;;;;;10.36;75.84;102650.06;2089453;28;20415;-68
2022/10/12 00:21:03;;;;;;;0.30;0.30;;;;;;;10.34;75.75;102644.13;2096403;28;20571;-67
2022/10/12 00:22:07;;;;;;;0.30;0.30;;;;;;;10.31;75.70;102652.84;2088453;28;20079;-67
2022/10/12 00:23:09;;;;;;;0.22;0.22;;;;;;;10.31;75.71;102642.03;2087617;28;20057;-68
2022/10/12 00:24:12;;;;;;;0.30;0.30;;;;;;;10.31;76.41;102644.72;2087315;28;20252;-67
2022/10/12 00:25:15;;;;;;;0.30;0.30;;;;;;;10.28;76.06;102642.63;2087299;28;20393;-68
2022/10/12 00:26:21;;;;;;;0.30;0.30;;;;;;;10.28;75.99;102642.63;2088932;28;20117;-68
2022/10/12 00:27:23;;;;;;;0.30;0.30;;;;;;;10.29;75.49;102648.84;2090698;28;20049;-68
2022/10/12 00:28:26;;;;;;;0.30;0.30;;;;;;;10.27;75.25;102648.31;2088939;28;20076;-68
2022/10/12 00:29:30;;;;;;;0.20;0.20;;;;;;;10.27;75.53;102645.63;2084834;28;20057;-67
2022/10/12 00:30:34;;;;;;;0.28;0.28;;;;;;;10.26;75.86;102646.69;2084296;28;20057;-68
2022/10/12 00:31:37;;;;;;;0.25;0.25;;;;;;;10.24;76.34;102652.38;2078240;28;20057;-69
2022/10/12 00:32:40;;;;;;;0.22;0.22;;;;;;;10.23;75.53;102644.59;2088469;28;20240;-69
2022/10/12 00:33:43;;;;;;;0.22;0.22;;;;;;;10.23;76.01;102653.50;2085591;28;20057;-68
2022/10/12 00:34:46;;;;;;;0.30;0.30;;;;;;;10.22;76.37;102649.22;2087971;28;20393;-67
2022/10/12 00:35:49;;;;;;;0.25;0.25;;;;;;;10.23;76.46;102649.97;2088777;28;20057;-69
2022/10/12 00:36:52;;;;;;;0.30;0.30;;;;;;;10.21;76.04;102647.59;2090660;28;20538;-67
2022/10/12 00:37:55;;;;;;;0.20;0.20;;;;;;;10.20;75.75;102651.38;2087731;28;20048;-67
2022/10/12 00:38:59;;;;;;;0.30;0.30;;;;;;;10.20;75.82;102646.00;2087600;28;20083;-68
2022/10/12 00:40:01;;;;;;;0.28;0.28;;;;;;;10.19;75.61;102648.97;2087763;28;20064;-68
2022/10/12 00:41:04;;;;;;;0.30;0.30;;;;;;;10.20;76.38;102651.38;2086800;28;20139;-68
2022/10/12 00:42:10;;;;;;;0.20;0.20;;;;;;;10.18;75.53;102648.16;2095125;28;20060;-67
2022/10/12 00:43:25;;;;;;;0.20;0.20;;;;;;;10.15;76.22;102640.66;2088107;28;20155;-68
2022/10/12 00:44:39;;;;;;;0.30;0.30;;;;;;;10.15;76.25;102648.75;2087557;28;20049;-68
2022/10/12 00:45:42;;;;;;;0.28;0.28;;;;;;;10.15;75.87;102646.06;2093294;28;20555;-68
2022/10/12 00:46:45;;;;;;;0.20;0.20;;;;;;;10.15;76.29;102647.94;2090723;28;20053;-69
2022/10/12 00:47:50;;;;;;;0.30;0.30;;;;;;;10.17;75.99;102657.38;2086659;28;20053;-68
2022/10/12 00:48:58;;;;;;;0.22;0.22;;;;;;;10.17;76.45;102651.97;2089057;28;20690;-67
2022/10/12 00:50:09;;;;;;;0.30;0.30;;;;;;;10.17;75.61;102651.16;2094668;28;20060;-68
2022/10/12 00:51:12;;;;;;;0.30;0.30;;;;;;;10.13;75.95;102656.34;2088771;28;20143;-67
2022/10/12 00:52:21;;;;;;;0.20;0.20;;;;;;;10.14;76.20;102644.47;2087883;28;20119;-67
2022/10/12 00:53:28;;;;;;;0.20;0.20;;;;;;;10.13;75.46;102640.16;2086171;28;20045;-68
2022/10/12 00:54:36;;;;;;;0.20;0.20;;;;;;;10.12;76.24;102649.34;2087493;28;20053;-67
2022/10/12 00:55:47;;;;;;;0.20;0.20;;;;;;;10.12;75.77;102649.34;2087953;28;20092;-67
2022/10/12 00:56:52;;;;;;;0.20;0.20;;;;;;;10.10;76.32;102640.72;2086276;28;20052;-67
2022/10/12 00:57:56;;;;;;;0.30;0.30;;;;;;;10.10;76.44;102640.72;2089064;28;20518;-68
2022/10/12 00:59:01;;;;;;;0.30;0.30;;;;;;;10.10;75.77;102640.72;2088994;28;20049;-67
2022/10/12 01:00:09;;;;;;;0.20;0.20;;;;;;;10.10;76.62;102638.03;2088693;28;20524;-67
2022/10/12 01:01:12;;;;;;;0.30;0.30;;;;;;;10.11;76.29;102646.94;2087396;28;20108;-68
2022/10/12 01:02:15;;;;;;;0.20;0.20;;;;;;;10.12;76.75;102645.84;2089795;28;20465;-68
2022/10/12 01:03:20;;;;;;;0.20;0.20;;;;;;;10.11;76.33;102641.56;2085949;28;20105;-67
2022/10/12 01:04:24;;;;;;;0.20;0.20;;;;;;;10.12;75.86;102643.13;2087661;28;20082;-67
2022/10/12 01:05:27;;;;;;;0.30;0.30;;;;;;;10.08;76.41;102642.94;2087556;28;20044;-67
2022/10/12 01:06:31;;;;;;;0.30;0.30;;;;;;;10.06;76.14;102646.97;2086721;28;20076;-68
2022/10/12 01:07:33;;;;;;;0.20;0.20;;;;;;;10.04;75.83;102647.28;2086248;28;20060;-68
2022/10/12 01:08:38;;;;;;;0.22;0.22;;;;;;;10.00;75.94;102648.97;2091850;28;20052;-67
2022/10/12 01:09:41;;;;;;;0.20;0.20;;;;;;;9.99;76.12;102639.25;2085212;28;20061;-68
2022/10/12 01:10:43;;;;;;;0.20;0.20;;;;;;;9.95;76.07;102653.63;2089032;28;20084;-67
2022/10/12 01:11:46;;;;;;;0.20;0.20;;;;;;;9.92;76.68;102648.81;2087715;28;20098;-67
2022/10/12 01:12:51;;;;;;;0.28;0.28;;;;;;;9.88;76.37;102639.69;2092425;28;20056;-68
2022/10/12 01:13:56;;;;;;;0.20;0.20;;;;;;;9.81;76.85;102648.16;2090054;28;20048;-69
2022/10/12 01:15:01;;;;;;;0.20;0.20;;;;;;;9.76;77.08;102645.53;2088246;28;20056;-67
2022/10/12 01:16:15;;;;;;;0.25;0.25;;;;;;;9.72;76.60;102643.72;2087844;28;20053;-68
2022/10/12 01:17:30;;;;;;;0.20;0.20;;;;;;;9.66;77.19;102651.06;2086978;28;20045;-67
2022/10/12 01:18:41;;;;;;;0.30;0.30;;;;;;;9.61;77.56;102645.72;2087603;28;20057;-68
2022/10/12 01:20:16;;;;;;;0.25;0.25;;;;;;;9.49;77.81;102639.97;2088858;28;20091;-66
2022/10/12 01:21:20;;;;;;;0.30;0.30;;;;;;;9.44;77.78;102647.28;2043047;28;20611;-68
2022/10/12 01:22:23;;;;;;;0.20;0.20;;;;;;;9.41;77.50;102637.91;2080735;28;20046;-67
2022/10/12 01:24:01;;;;;;;0.25;0.25;;;;;;;9.37;77.28;102636.84;2088246;28;20053;-68
2022/10/12 01:25:15;;;;;;;0.20;0.20;;;;;;;9.35;77.55;102632.84;2087816;28;20496;-67
2022/10/12 01:26:56;;;;;;;0.22;0.22;;;;;;;9.26;77.76;102635.38;2087358;28;20077;-67
2022/10/12 01:28:02;;;;;;;;;;;;;;;9.08;78.00;102628.06;2090136;28;20048;-67
2022/10/12 01:29:22;;;;;;;0.30;0.30;;;;;;;9.11;78.01;102640.94;2091248;28;20438;-67
2022/10/12 01:30:33;;;;;;;0.30;0.30;;;;;;;9.07;77.52;102642.59;2087407;28;20167;-67
2022/10/12 01:31:42;;;;;;;0.30;0.30;;;;;;;8.99;78.52;102633.25;2082671;28;20049;-69
2022/10/12 01:33:17;;;;;;;0.30;0.30;;;;;;;8.88;79.12;102637.16;2082294;28;20060;-67
2022/10/12 01:34:26;;;;;;;0.30;0.30;;;;;;;8.82;78.67;102634.78;2085317;28;20069;-67
2022/10/12 01:35:35;;;;;;;0.30;0.30;;;;;;;8.79;78.88;102638.06;2088928;28;20049;-67
2022/10/12 01:36:43;;;;;;;0.30;0.30;;;;;;;8.74;79.87;102630.03;2086728;28;20566;-67
2022/10/12 01:37:58;;;;;;;0.35;0.35;;;;;;;8.66;79.43;102630.63;2085676;28;20481;-69
2022/10/12 01:39:08;;;;;;;0.30;0.30;;;;;;;8.60;80.17;102626.38;2087912;28;20091;-68
2022/10/12 01:40:15;;;;;;;0.20;0.20;;;;;;;8.56;80.52;102628.06;2095056;28;20061;-68
2022/10/12 01:41:22;;;;;;;0.30;0.30;;;;;;;8.56;79.73;102622.66;2088116;28;20041;-68
2022/10/12 01:42:29;;;;;;;0.30;0.30;;;;;;;8.55;80.97;102626.44;2086163;28;20357;-68
2022/10/12 01:43:35;;;;;;;0.30;0.30;;;;;;;8.53;79.80;102626.72;2086799;28;20075;-68
2022/10/12 01:44:37;;;;;;;0.30;0.30;;;;;;;8.54;80.63;102627.53;2079169;28;20057;-67
2022/10/12 01:45:48;;;;;;;0.40;0.40;;;;;;;8.52;80.51;102627.00;2085115;28;20389;-67
2022/10/12 01:46:52;;;;;;;0.30;0.30;;;;;;;8.49;80.67;102624.88;2087128;28;20327;-67
2022/10/12 01:47:55;;;;;;;0.40;0.40;;;;;;;8.48;80.85;102617.91;2093402;28;20064;-68
2022/10/12 01:49:00;;;;;;;0.30;0.30;;;;;;;8.50;80.76;102621.13;2088904;28;20570;-67
2022/10/12 01:50:06;;;;;;;0.35;0.35;;;;;;;8.53;80.76;102623.25;2086704;28;20041;-67
2022/10/12 01:51:11;;;;;;;0.30;0.30;;;;;;;8.55;80.41;102624.56;2088000;28;20053;-67
2022/10/12 01:52:29;;;;;;;0.38;0.38;;;;;;;8.58;80.54;102623.16;2095242;28;20600;-68
2022/10/12 01:53:40;;;;;;;0.30;0.30;;;;;;;8.61;80.55;102628.00;2089654;28;20123;-67
2022/10/12 01:55:02;;;;;;;0.32;0.32;;;;;;;8.61;80.02;102625.31;2086341;28;20060;-66
2022/10/12 01:56:10;;;;;;;0.30;0.30;;;;;;;8.63;80.06;102631.19;2088715;28;20167;-68
2022/10/12 01:57:19;;;;;;;0.30;0.30;;;;;;;8.61;80.79;102623.41;2088233;28;20050;-67
2022/10/12 01:58:33;;;;;;;0.30;0.30;;;;;;;8.58;79.97;102625.84;2088485;28;20084;-67
2022/10/12 01:59:47;;;;;;;0.30;0.30;;;;;;;8.52;80.55;102624.31;2084724;28;20133;-67
2022/10/12 02:00:59;;;;;;;0.30;0.30;;;;;;;8.43;80.73;102615.25;2086380;28;20053;-66
2022/10/12 02:02:13;;;;;;;0.30;0.30;;;;;;;8.40;81.04;102615.81;2088024;28;20140;-67
2022/10/12 02:03:23;;;;;;;0.35;0.35;;;;;;;8.40;81.14;102615.81;2094422;28;20847;-67
2022/10/12 02:04:33;;;;;;;0.40;0.40;;;;;;;8.40;81.07;102615.81;2087477;28;20088;-67
2022/10/12 02:05:44;;;;;;;0.30;0.30;;;;;;;8.39;81.32;102615.00;2087453;28;20113;-67
2022/10/12 02:06:51;;;;;;;0.30;0.30;;;;;;;8.40;81.20;102615.81;2085458;28;20068;-67
2022/10/12 02:07:58;;;;;;;0.30;0.30;;;;;;;8.38;81.62;102612.59;2087002;28;20106;-67
2022/10/12 02:09:07;;;;;;;0.30;0.30;;;;;;;8.36;81.26;102612.06;2089668;28;20052;-67
2022/10/12 02:10:16;;;;;;;0.40;0.40;;;;;;;8.33;81.13;102616.13;2087119;28;20484;-67
2022/10/12 02:11:20;;;;;;;0.40;0.40;;;;;;;8.32;81.21;102613.72;2086188;28;20044;-68
2022/10/12 02:12:26;;;;;;;0.40;0.40;;;;;;;8.32;81.40;102619.09;2088881;28;20072;-67
2022/10/12 02:13:33;;;;;;;0.30;0.30;;;;;;;8.29;81.60;102614.28;2086418;28;20064;-68
2022/10/12 02:14:43;;;;;;;0.38;0.38;;;;;;;8.26;81.49;102610.25;2087601;28;20095;-67
2022/10/12 02:15:47;;;;;;;0.50;0.50;;;;;;;8.22;81.13;102613.75;2086747;28;20111;-67
2022/10/12 02:16:57;;;;;;;0.40;0.40;;;;;;;8.21;81.83;102617.56;2087191;28;20052;-67
2022/10/12 02:18:03;;;;;;;0.40;0.40;;;;;;;8.20;81.56;102611.34;2088307;28;20072;-68
2022/10/12 02:19:11;;;;;;;0.38;0.38;;;;;;;8.21;81.83;102612.16;2079912;28;20059;-68
2022/10/12 02:20:15;;;;;;;0.40;0.40;;;;;;;8.19;81.39;102611.63;2084170;28;20053;-67
2022/10/12 02:21:25;;;;;;;0.40;0.40;;;;;;;8.16;82.23;102610.31;2086383;28;20131;-68
2022/10/12 02:22:33;;;;;;;0.40;0.40;;;;;;;8.15;82.40;102616.00;2089103;28;20416;-67
2022/10/12 02:23:38;;;;;;;0.40;0.40;;;;;;;8.14;82.21;102615.19;2086532;28;20458;-67
2022/10/12 02:24:44;;;;;;;0.30;0.30;;;;;;;8.15;81.98;102611.38;2088113;28;21554;-67
2022/10/12 02:25:48;;;;;;;0.30;0.30;;;;;;;8.15;82.29;102606.00;2083672;28;20084;-67
2022/10/12 02:26:54;;;;;;;0.30;0.30;;;;;;;8.17;82.45;102605.72;2089781;28;20140;-68
2022/10/12 02:28:02;;;;;;;0.30;0.30;;;;;;;8.16;82.16;102609.50;2087036;28;20113;-69
2022/10/12 02:29:10;;;;;;;0.30;0.30;;;;;;;8.16;81.81;102604.94;2087597;28;20065;-67
2022/10/12 02:30:12;;;;;;;0.40;0.40;;;;;;;8.18;82.00;102612.75;2086343;28;20126;-70
2022/10/12 02:31:24;;;;;;;0.30;0.30;;;;;;;8.19;81.98;102606.25;2083530;28;20546;-71
2022/10/12 02:32:34;;;;;;;0.32;0.32;;;;;;;8.18;81.66;102602.75;2084668;28;20072;-71
2022/10/12 02:33:46;;;;;;;0.30;0.30;;;;;;;8.20;81.93;102608.66;2083624;28;20060;-71
2022/10/12 02:34:51;;;;;;;;;;;;;;;8.10;82.53;102599.88;2089638;28;20416;-71
2022/10/12 02:36:01;;;;;;;0.30;0.30;;;;;;;8.17;82.17;102595.78;2093984;28;19921;-70
2022/10/12 02:37:08;;;;;;;0.40;0.40;;;;;;;8.21;81.68;102601.41;2087891;28;20049;-71
2022/10/12 02:38:16;;;;;;;0.30;0.30;;;;;;;8.25;82.13;102599.78;2078430;28;20061;-71
2022/10/12 02:39:22;;;;;;;0.30;0.30;;;;;;;8.25;82.07;102597.09;2085322;28;20053;-71
2022/10/12 02:40:32;;;;;;;0.32;0.32;;;;;;;8.26;81.44;102593.34;2085853;28;20045;-71
2022/10/12 02:41:40;;;;;;;0.32;0.32;;;;;;;8.24;81.96;102590.13;2086241;28;20085;-71
2022/10/12 02:42:49;;;;;;;0.30;0.30;;;;;;;8.20;81.98;102589.84;2087026;28;20053;-71
2022/10/12 02:44:16;;;;;;;0.30;0.30;;;;;;;8.16;82.49;102593.38;2087252;28;20385;-71
2022/10/12 02:45:20;;;;;;;0.30;0.30;;;;;;;8.14;82.13;102582.09;2093059;28;20101;-71
2022/10/12 02:46:26;;;;;;;0.30;0.30;;;;;;;8.17;82.38;102589.59;2090279;28;20055;-71
2022/10/12 02:47:33;;;;;;;0.30;0.30;;;;;;;8.18;81.96;102591.22;2089107;28;20120;-71
2022/10/12 02:48:38;;;;;;;0.30;0.30;;;;;;;8.20;82.59;102589.03;2085837;28;20053;-71
2022/10/12 02:49:43;;;;;;;0.40;0.40;;;;;;;8.21;82.69;102593.34;2087955;28;20424;-71
2022/10/12 02:50:49;;;;;;;0.30;0.30;;;;;;;8.22;82.37;102584.16;2088837;28;21857;-71
2022/10/12 02:51:53;;;;;;;0.32;0.32;;;;;;;8.21;82.79;102583.38;2087846;28;20436;-71
2022/10/12 02:52:58;;;;;;;0.40;0.40;;;;;;;8.23;82.65;102585.81;2094133;28;20076;-71
2022/10/12 02:54:02;;;;;;;0.30;0.30;;;;;;;8.23;82.50;102588.53;2088295;28;20056;-71
2022/10/12 02:55:06;;;;;;;0.32;0.32;;;;;;;8.24;82.01;102580.16;2087080;28;20057;-72
2022/10/12 02:56:11;;;;;;;0.30;0.30;;;;;;;8.24;82.24;102582.03;2087557;28;20045;-71
2022/10/12 02:57:14;;;;;;;0.40;0.40;;;;;;;8.25;82.33;102581.75;2088734;28;20045;-72
2022/10/12 02:58:17;;;;;;;0.30;0.30;;;;;;;8.25;82.47;102575.56;2089206;28;20064;-71
2022/10/12 02:59:20;;;;;;;0.40;0.40;;;;;;;8.25;82.64;102587.13;2089419;28;20511;-71
2022/10/12 03:00:22;;;;;;;0.40;0.40;;;;;;;8.26;82.20;102587.94;2089330;28;20132;-71
2022/10/12 03:01:25;;;;;;;0.40;0.40;;;;;;;8.24;81.82;102580.16;2088198;28;20046;-71
2022/10/12 03:02:28;;;;;;;0.40;0.40;;;;;;;8.23;82.22;102585.81;2091065;28;20520;-71
2022/10/12 03:03:33;;;;;;;0.40;0.40;;;;;;;8.24;82.32;102582.03;2088968;28;20148;-71
2022/10/12 03:04:35;;;;;;;0.40;0.40;;;;;;;8.22;82.10;102576.09;2086953;28;20858;-71
2022/10/12 03:05:38;;;;;;;0.40;0.40;;;;;;;8.22;82.51;102571.53;2088199;28;20052;-71
2022/10/12 03:06:41;;;;;;;0.40;0.40;;;;;;;8.21;82.70;102580.69;2088852;28;20087;-71
2022/10/12 03:07:45;;;;;;;0.30;0.30;;;;;;;8.22;83.20;102578.78;2087399;28;20123;-71
2022/10/12 03:08:47;;;;;;;0.40;0.40;;;;;;;8.22;82.76;102581.47;2096945;28;20053;-71
2022/10/12 03:09:50;;;;;;;0.30;0.30;;;;;;;8.21;82.58;102577.19;2086201;28;20049;-71
2022/10/12 03:10:53;;;;;;;0.40;0.40;;;;;;;8.21;82.63;102571.81;2089576;28;20731;-71
2022/10/12 03:11:56;;;;;;;0.30;0.30;;;;;;;8.21;82.38;102571.81;2092421;28;20061;-71
2022/10/12 03:12:58;;;;;;;0.30;0.30;;;;;;;8.22;82.69;102576.09;2088424;28;20059;-70
2022/10/12 03:14:02;;;;;;;0.30;0.30;;;;;;;8.22;82.71;102573.41;2086706;28;20060;-71
2022/10/12 03:15:05;;;;;;;0.40;0.40;;;;;;;8.23;83.05;102572.38;2093902;28;20109;-71
2022/10/12 03:16:11;;;;;;;0.30;0.30;;;;;;;8.25;83.10;102570.19;2094639;28;20044;-71
2022/10/12 03:17:13;;;;;;;0.30;0.30;;;;;;;8.26;82.86;102563.72;2093302;28;20416;-71
2022/10/12 03:18:17;;;;;;;0.30;0.30;;;;;;;8.27;82.35;102568.84;2094254;28;20052;-70
2022/10/12 03:19:21;;;;;;;0.30;0.30;;;;;;;8.26;82.73;102563.72;2090056;28;20049;-70
2022/10/12 03:20:25;;;;;;;0.40;0.40;;;;;;;8.30;82.77;102567.44;2092009;28;20063;-70
2022/10/12 03:21:28;;;;;;;0.30;0.30;;;;;;;8.30;82.48;102568.25;2088014;28;20053;-70
2022/10/12 03:22:31;;;;;;;0.30;0.30;;;;;;;8.31;82.36;102563.69;2093933;28;20057;-70
2022/10/12 03:23:34;;;;;;;0.40;0.40;;;;;;;8.32;82.08;102567.97;2091318;28;20072;-70
2022/10/12 03:24:37;;;;;;;0.25;0.25;;;;;;;8.29;82.25;102569.34;2094002;28;20076;-71
2022/10/12 03:25:40;;;;;;;0.30;0.30;;;;;;;8.30;82.91;102568.25;2088965;28;20060;-71
2022/10/12 03:26:43;;;;;;;0.30;0.30;;;;;;;8.30;82.62;102565.56;2091399;28;20487;-70
2022/10/12 03:27:46;;;;;;;0.40;0.40;;;;;;;8.32;82.65;102565.28;2089952;28;20529;-71
2022/10/12 03:28:49;;;;;;;0.30;0.30;;;;;;;8.36;82.31;102569.00;2094030;28;20090;-70
2022/10/12 03:29:53;;;;;;;0.30;0.30;;;;;;;8.35;83.04;102568.22;2087127;28;20412;-72
2022/10/12 03:30:56;;;;;;;0.30;0.30;;;;;;;8.38;82.15;102569.53;2088081;28;20068;-71
2022/10/12 03:31:59;;;;;;;0.30;0.30;;;;;;;8.38;82.13;102567.66;2088529;28;20520;-71
2022/10/12 03:33:02;;;;;;;0.40;0.40;;;;;;;8.37;82.26;102567.94;2085466;28;20052;-71
2022/10/12 03:34:06;;;;;;;0.30;0.30;;;;;;;8.37;82.24;102563.34;2089634;28;20053;-71
2022/10/12 03:35:10;;;;;;;0.38;0.38;;;;;;;8.35;82.97;102559.34;2089433;28;20053;-71
2022/10/12 03:36:13;;;;;;;0.30;0.30;;;;;;;8.38;82.55;102566.84;2089864;28;20049;-71
2022/10/12 03:37:16;;;;;;;0.30;0.30;;;;;;;8.39;82.09;102566.56;2089218;28;20056;-71
2022/10/12 03:38:20;;;;;;;0.30;0.30;;;;;;;8.44;82.05;102558.44;2091784;28;20068;-72
2022/10/12 03:39:23;;;;;;;0.30;0.30;;;;;;;8.46;81.97;102555.47;2095409;28;20547;-71
2022/10/12 03:40:26;;;;;;;0.40;0.40;;;;;;;8.47;82.37;102552.50;2093827;28;20048;-71
2022/10/12 03:41:29;;;;;;;0.38;0.38;;;;;;;8.51;82.13;102564.31;2089887;28;20066;-71
2022/10/12 03:42:33;;;;;;;0.30;0.30;;;;;;;8.52;82.37;102552.44;2087232;28;20091;-71
2022/10/12 03:43:35;;;;;;;0.30;0.30;;;;;;;8.53;82.72;102561.31;2087926;28;20113;-72
2022/10/12 03:44:38;;;;;;;0.30;0.30;;;;;;;8.54;81.39;102562.91;2093401;28;20060;-71
2022/10/12 03:45:41;;;;;;;0.40;0.40;;;;;;;8.51;82.32;102560.81;2090374;28;20181;-71
2022/10/12 03:46:44;;;;;;;0.30;0.30;;;;;;;8.49;82.33;102560.28;2093977;28;20056;-71
2022/10/12 03:47:47;;;;;;;0.40;0.40;;;;;;;8.46;81.94;102564.34;2087610;28;20049;-71
2022/10/12 03:48:50;;;;;;;0.40;0.40;;;;;;;8.46;82.02;102560.84;2088443;28;20084;-71
2022/10/12 03:49:52;;;;;;;0.40;0.40;;;;;;;8.41;82.04;102559.00;2086396;28;20049;-71
2022/10/12 03:50:57;;;;;;;0.38;0.38;;;;;;;8.40;82.23;102559.28;2089017;28;20056;-71
2022/10/12 03:52:00;;;;;;;0.40;0.40;;;;;;;8.40;82.34;102553.91;2085405;28;20044;-71
2022/10/12 03:53:05;;;;;;;0.35;0.35;;;;;;;8.40;82.32;102553.91;2088523;28;20060;-71
2022/10/12 03:54:07;;;;;;;0.40;0.40;;;;;;;8.39;82.47;102554.97;2092650;28;20080;-71
2022/10/12 03:55:12;;;;;;;0.38;0.38;;;;;;;8.41;82.46;102550.13;2091751;28;20049;-70
2022/10/12 03:56:15;;;;;;;0.40;0.40;;;;;;;8.42;82.10;102559.81;2088347;28;20072;-71
2022/10/12 03:57:18;;;;;;;0.40;0.40;;;;;;;8.43;82.09;102561.41;2089007;28;20120;-71
2022/10/12 03:58:21;;;;;;;0.35;0.35;;;;;;;8.45;82.54;102559.25;2092767;28;20084;-71
2022/10/12 03:59:24;;;;;;;0.30;0.30;;;;;;;8.47;82.55;102551.66;2091933;28;20048;-72
2022/10/12 04:00:27;;;;;;;0.30;0.30;;;;;;;8.46;82.78;102550.91;2090803;28;20078;-71
2022/10/12 04:01:32;;;;;;;0.40;0.40;;;;;;;8.49;82.25;102552.19;2089062;28;20080;-71
2022/10/12 04:02:34;;;;;;;0.40;0.40;;;;;;;8.50;82.48;102559.22;2088941;28;20049;-72
2022/10/12 04:03:37;;;;;;;0.30;0.30;;;;;;;8.51;81.91;102552.72;2088295;28;20110;-71
2022/10/12 04:04:40;;;;;;;0.30;0.30;;;;;;;8.48;82.50;102548.69;2093462;28;20109;-71
2022/10/12 04:05:44;;;;;;;0.40;0.40;;;;;;;8.45;82.26;102543.88;2094200;28;20059;-71
2022/10/12 04:06:48;;;;;;;0.40;0.40;;;;;;;8.45;81.63;102548.50;2087477;28;20048;-71
2022/10/12 04:07:51;;;;;;;0.38;0.38;;;;;;;8.40;82.28;102543.16;2085065;28;20102;-71
2022/10/12 04:08:53;;;;;;;0.40;0.40;;;;;;;8.39;82.07;102544.22;2087709;28;20409;-71
2022/10/12 04:09:57;;;;;;;0.40;0.40;;;;;;;8.35;83.05;102560.16;2094598;28;20068;-73
2022/10/12 04:11:00;;;;;;;0.35;0.35;;;;;;;8.30;82.77;102548.63;2088867;28;20044;-71
2022/10/12 04:12:03;;;;;;;0.30;0.30;;;;;;;8.28;83.26;102553.47;2090713;28;20662;-71
2022/10/12 04:13:07;;;;;;;0.38;0.38;;;;;;;8.25;83.01;102549.47;2088549;28;20060;-71
2022/10/12 04:14:09;;;;;;;0.30;0.30;;;;;;;8.26;83.13;102539.53;2088186;28;20044;-71
2022/10/12 04:15:13;;;;;;;0.30;0.30;;;;;;;8.27;83.33;102546.50;2087480;28;20053;-71
2022/10/12 04:16:15;;;;;;;0.40;0.40;;;;;;;8.31;82.65;102550.25;2088313;28;20053;-72
2022/10/12 04:17:19;;;;;;;0.40;0.40;;;;;;;8.31;83.08;102550.25;2089223;28;20118;-72
2022/10/12 04:18:22;;;;;;;0.30;0.30;;;;;;;8.31;82.79;102553.72;2088326;28;20083;-72
2022/10/12 04:19:25;;;;;;;0.40;0.40;;;;;;;8.30;82.52;102551.31;2089010;28;20121;-72
2022/10/12 04:20:27;;;;;;;0.40;0.40;;;;;;;8.28;82.88;102546.22;2088766;28;20053;-72
2022/10/12 04:21:31;;;;;;;0.40;0.40;;;;;;;8.27;82.43;102547.31;2087559;28;20063;-72
2022/10/12 04:22:36;;;;;;;0.32;0.32;;;;;;;8.24;83.08;102553.25;2085859;28;20061;-72
2022/10/12 04:23:39;;;;;;;0.40;0.40;;;;;;;8.19;82.94;102544.38;2085668;28;20136;-71
2022/10/12 04:24:45;;;;;;;0.40;0.40;;;;;;;8.12;83.75;102541.22;2087220;28;20049;-71
2022/10/12 04:25:48;;;;;;;0.40;0.40;;;;;;;8.11;83.09;102545.81;2094897;28;20061;-72
2022/10/12 04:26:50;;;;;;;0.40;0.40;;;;;;;8.08;83.44;102548.25;2088891;28;20546;-71
2022/10/12 04:27:53;;;;;;;0.40;0.40;;;;;;;8.04;83.50;102542.63;2087735;28;20132;-71
2022/10/12 04:28:56;;;;;;;0.40;0.40;;;;;;;8.02;83.64;102538.63;2088586;28;20057;-71
2022/10/12 04:29:59;;;;;;;0.40;0.40;;;;;;;8.01;84.03;102537.03;2090589;28;20163;-71
2022/10/12 04:31:01;;;;;;;0.40;0.40;;;;;;;7.99;84.01;102544.56;2090081;28;20045;-71
2022/10/12 04:32:05;;;;;;;0.40;0.40;;;;;;;7.98;84.21;102542.94;2089577;28;20152;-71
2022/10/12 04:33:13;;;;;;;0.40;0.40;;;;;;;7.96;84.14;102545.13;2088266;28;20053;-72
2022/10/12 04:34:16;;;;;;;0.40;0.40;;;;;;;7.95;84.17;102549.69;2088060;28;20053;-71
2022/10/12 04:35:19;;;;;;;0.40;0.40;;;;;;;7.94;84.16;102544.59;2088179;28;20512;-71
2022/10/12 04:36:22;;;;;;;0.40;0.40;;;;;;;7.95;84.22;102549.69;2087265;28;20059;-71
2022/10/12 04:37:25;;;;;;;0.40;0.40;;;;;;;7.94;84.46;102550.78;2095898;28;20051;-72
2022/10/12 04:38:30;;;;;;;0.40;0.40;;;;;;;7.94;84.41;102548.09;2091639;28;20059;-71
2022/10/12 04:39:33;;;;;;;0.40;0.40;;;;;;;7.93;84.24;102545.69;2086367;28;20063;-71
2022/10/12 04:40:37;;;;;;;0.40;0.40;;;;;;;7.93;84.79;102546.47;2090321;28;20148;-72
2022/10/12 04:41:39;;;;;;;0.40;0.40;;;;;;;7.93;84.84;102541.09;2088478;28;20053;-71
2022/10/12 04:42:43;;;;;;;0.40;0.40;;;;;;;7.94;84.03;102541.91;2089074;28;20102;-71
2022/10/12 04:43:45;;;;;;;0.40;0.40;;;;;;;7.95;84.44;102549.69;2087620;28;20087;-71
2022/10/12 04:44:48;;;;;;;0.50;0.50;;;;;;;7.97;84.16;102542.16;2087670;28;20061;-71
2022/10/12 04:45:55;;;;;;;0.40;0.40;;;;;;;7.98;84.43;102543.75;2087408;28;20458;-71
2022/10/12 04:46:58;;;;;;;0.40;0.40;;;;;;;8.01;83.94;102547.78;2094256;28;20048;-71
2022/10/12 04:48:01;;;;;;;0.30;0.30;;;;;;;8.04;83.76;102545.31;2092857;28;20048;-71
2022/10/12 04:49:04;;;;;;;0.30;0.30;;;;;;;8.06;83.94;102542.34;2094049;28;20132;-71
2022/10/12 04:50:07;;;;;;;0.40;0.40;;;;;;;8.08;83.82;102551.75;2088429;28;20520;-71
2022/10/12 04:51:10;;;;;;;0.40;0.40;;;;;;;8.09;83.73;102555.22;2087098;28;20135;-72
2022/10/12 04:52:13;;;;;;;0.40;0.40;;;;;;;8.10;83.66;102552.28;2088661;28;20124;-71
2022/10/12 04:53:16;;;;;;;0.40;0.40;;;;;;;8.11;83.51;102553.06;2088849;28;20068;-71
2022/10/12 04:54:20;;;;;;;0.40;0.40;;;;;;;8.11;83.39;102561.13;2087739;28;20052;-71
2022/10/12 04:55:23;;;;;;;0.40;0.40;;;;;;;8.10;83.60;102567.59;2087730;28;20463;-71
2022/10/12 04:56:25;;;;;;;0.50;0.50;;;;;;;8.08;83.31;102559.00;2095321;28;20065;-71
2022/10/12 04:57:29;;;;;;;0.50;0.50;;;;;;;8.05;83.41;102554.19;2087994;28;20124;-71
2022/10/12 04:58:33;;;;;;;0.40;0.40;;;;;;;8.03;83.99;102557.16;2086356;28;20095;-71
2022/10/12 04:59:36;;;;;;;0.40;0.40;;;;;;;8.02;83.27;102554.75;2088465;28;20496;-71
2022/10/12 05:00:38;;;;;;;0.50;0.50;;;;;;;8.01;83.10;102555.84;2092924;28;20056;-71
2022/10/12 05:01:42;;;;;;;0.40;0.40;;;;;;;7.99;83.82;102555.31;2090174;28;20053;-71
2022/10/12 05:02:44;;;;;;;0.40;0.40;;;;;;;7.97;83.78;102555.59;2092576;28;20133;-71
2022/10/12 05:03:47;;;;;;;0.43;0.43;;;;;;;7.94;83.65;102549.97;2079285;28;20624;-72
2022/10/12 05:04:50;;;;;;;0.40;0.40;;;;;;;7.91;83.71;102542.47;2090860;28;20044;-72
2022/10/12 05:05:53;;;;;;;0.40;0.40;;;;;;;7.90;83.72;102551.59;2089316;28;20040;-71
2022/10/12 05:06:56;;;;;;;0.40;0.40;;;;;;;7.91;83.66;102547.84;2086899;28;20826;-71
2022/10/12 05:07:59;;;;;;;0.40;0.40;;;;;;;7.91;83.41;102550.53;2087676;28;20053;-71